sensor_id;sensor_type;location;lat;lon;timestamp;temperature;humidity
65692;DHT22;52411;52.716;6.696;2023-03-23T00:02:26;11.90;99.90
65692;DHT22;52411;52.716;6.696;2023-03-23T00:04:52;11.90;99.90
65692;DHT22;52411;52.716;6.696;2023-03-23T00:07:19;11.90;99.90
65692;DHT22;52411;52.716;6.696;2023-03-23T00:09:50;11.90;99.90
65692;DHT22;52411;52.716;6.696;2023-03-23T00:12:23;11.90;99.90
65692;DHT22;52411;52.716;6.696;2023-03-23T00:15:06;12.00;99.90
65692;DHT22;52411;52.716;6.696;2023-03-23T00:17:34;12.00;99.90
65692;DHT22;52411;52.716;6.696;2023-03-23T00:20:00;12.00;99.90
65692;DHT22;52411;52.716;6.696;2023-03-23T00:22:27;12.00;99.90
65692;DHT22;52411;52.716;6.696;2023-03-23T00:24:53;12.00;99.90
65692;DHT22;52411;52.716;6.696;2023-03-23T00:27:19;12.00;99.90
65692;DHT22;52411;52.716;6.696;2023-03-23T00:29:48;11.90;99.90
65692;DHT22;52411;52.716;6.696;2023-03-23T00:32:18;11.90;99.90
65692;DHT22;52411;52.716;6.696;2023-03-23T00:34:46;11.90;99.90
65692;DHT22;52411;52.716;6.696;2023-03-23T00:37:14;12.00;99.90
65692;DHT22;52411;52.716;6.696;2023-03-23T00:39:42;12.00;99.90
65692;DHT22;52411;52.716;6.696;2023-03-23T00:42:10;12.00;99.90
65692;DHT22;52411;52.716;6.696;2023-03-23T00:44:37;11.90;99.90
65692;DHT22;52411;52.716;6.696;2023-03-23T00:47:03;11.90;99.90
65692;DHT22;52411;52.716;6.696;2023-03-23T00:49:29;12.00;99.90
65692;DHT22;52411;52.716;6.696;2023-03-23T00:51:56;12.10;99.90
65692;DHT22;52411;52.716;6.696;2023-03-23T00:54:23;12.10;99.90
65692;DHT22;52411;52.716;6.696;2023-03-23T00:56:49;12.20;99.90
65692;DHT22;52411;52.716;6.696;2023-03-23T00:59:15;12.20;99.90
65692;DHT22;52411;52.716;6.696;2023-03-23T01:01:41;12.20;99.90
65692;DHT22;52411;52.716;6.696;2023-03-23T01:04:07;12.20;99.90
65692;DHT22;52411;52.716;6.696;2023-03-23T01:06:35;12.20;99.90
65692;DHT22;52411;52.716;6.696;2023-03-23T01:09:05;12.20;99.90
65692;DHT22;52411;52.716;6.696;2023-03-23T01:11:31;12.30;99.90
65692;DHT22;52411;52.716;6.696;2023-03-23T01:13:57;12.30;99.90
65692;DHT22;52411;52.716;6.696;2023-03-23T01:16:23;12.20;99.90
65692;DHT22;52411;52.716;6.696;2023-03-23T01:18:49;12.10;99.90
65692;DHT22;52411;52.716;6.696;2023-03-23T01:21:17;12.10;99.90
65692;DHT22;52411;52.716;6.696;2023-03-23T01:23:43;12.00;99.90
65692;DHT22;52411;52.716;6.696;2023-03-23T01:26:11;12.00;99.90
65692;DHT22;52411;52.716;6.696;2023-03-23T01:28:37;12.00;99.90
65692;DHT22;52411;52.716;6.696;2023-03-23T01:31:04;11.90;99.90
65692;DHT22;52411;52.716;6.696;2023-03-23T01:33:31;11.90;99.90
65692;DHT22;52411;52.716;6.696;2023-03-23T01:35:57;11.90;99.90
65692;DHT22;52411;52.716;6.696;2023-03-23T01:38:23;12.00;99.90
65692;DHT22;52411;52.716;6.696;2023-03-23T01:40:49;12.00;99.90
65692;DHT22;52411;52.716;6.696;2023-03-23T01:43:15;12.00;99.90
65692;DHT22;52411;52.716;6.696;2023-03-23T01:45:41;12.00;99.90
65692;DHT22;52411;52.716;6.696;2023-03-23T01:48:12;11.90;99.90
65692;DHT22;52411;52.716;6.696;2023-03-23T01:50:45;11.90;99.90
65692;DHT22;52411;52.716;6.696;2023-03-23T01:53:12;11.90;99.90
65692;DHT22;52411;52.716;6.696;2023-03-23T01:55:41;11.90;99.90
65692;DHT22;52411;52.716;6.696;2023-03-23T01:58:09;12.00;99.90
65692;DHT22;52411;52.716;6.696;2023-03-23T02:00:37;12.00;99.90
65692;DHT22;52411;52.716;6.696;2023-03-23T02:03:06;12.00;99.90
65692;DHT22;52411;52.716;6.696;2023-03-23T02:05:37;12.10;99.90
65692;DHT22;52411;52.716;6.696;2023-03-23T02:08:04;12.00;99.90
65692;DHT22;52411;52.716;6.696;2023-03-23T02:10:32;12.00;99.90
65692;DHT22;52411;52.716;6.696;2023-03-23T02:12:59;12.00;99.90
65692;DHT22;52411;52.716;6.696;2023-03-23T02:15:28;11.90;99.90
65692;DHT22;52411;52.716;6.696;2023-03-23T02:18:04;11.90;99.90
65692;DHT22;52411;52.716;6.696;2023-03-23T02:26:26;11.80;99.90
65692;DHT22;52411;52.716;6.696;2023-03-23T02:32:10;11.90;99.90
65692;DHT22;52411;52.716;6.696;2023-03-23T02:34:49;12.00;99.90
65692;DHT22;52411;52.716;6.696;2023-03-23T02:37:24;11.90;99.90
65692;DHT22;52411;52.716;6.696;2023-03-23T02:40:04;11.90;99.90
65692;DHT22;52411;52.716;6.696;2023-03-23T02:42:38;11.80;99.90
65692;DHT22;52411;52.716;6.696;2023-03-23T02:45:07;11.80;99.90
65692;DHT22;52411;52.716;6.696;2023-03-23T02:47:36;11.80;99.90
65692;DHT22;52411;52.716;6.696;2023-03-23T02:50:05;11.80;99.90
65692;DHT22;52411;52.716;6.696;2023-03-23T02:52:33;11.80;99.90
65692;DHT22;52411;52.716;6.696;2023-03-23T02:55:00;11.80;99.90
65692;DHT22;52411;52.716;6.696;2023-03-23T02:57:28;11.80;99.90
65692;DHT22;52411;52.716;6.696;2023-03-23T02:59:54;11.80;99.90
65692;DHT22;52411;52.716;6.696;2023-03-23T03:02:36;11.90;99.90
65692;DHT22;52411;52.716;6.696;2023-03-23T03:10:58;12.00;99.90
65692;DHT22;52411;52.716;6.696;2023-03-23T03:16:07;11.90;99.90
65692;DHT22;52411;52.716;6.696;2023-03-23T03:18:41;12.00;99.90
65692;DHT22;52411;52.716;6.696;2023-03-23T03:21:11;12.00;99.90
65692;DHT22;52411;52.716;6.696;2023-03-23T03:23:40;12.00;99.90
65692;DHT22;52411;52.716;6.696;2023-03-23T03:26:11;12.00;99.90
65692;DHT22;52411;52.716;6.696;2023-03-23T03:28:37;12.00;99.90
65692;DHT22;52411;52.716;6.696;2023-03-23T03:31:04;12.00;99.90
65692;DHT22;52411;52.716;6.696;2023-03-23T03:33:31;12.10;99.90
65692;DHT22;52411;52.716;6.696;2023-03-23T03:36:01;12.10;99.90
65692;DHT22;52411;52.716;6.696;2023-03-23T03:38:27;12.20;99.90
65692;DHT22;52411;52.716;6.696;2023-03-23T03:40:54;12.10;99.90
65692;DHT22;52411;52.716;6.696;2023-03-23T03:43:20;12.10;99.90
65692;DHT22;52411;52.716;6.696;2023-03-23T03:45:45;12.20;99.90
65692;DHT22;52411;52.716;6.696;2023-03-23T03:48:11;12.20;99.90
65692;DHT22;52411;52.716;6.696;2023-03-23T03:50:37;12.20;99.90
65692;DHT22;52411;52.716;6.696;2023-03-23T03:53:02;12.20;99.90
65692;DHT22;52411;52.716;6.696;2023-03-23T03:55:28;12.20;99.90
65692;DHT22;52411;52.716;6.696;2023-03-23T03:57:57;12.20;99.90
65692;DHT22;52411;52.716;6.696;2023-03-23T04:00:25;12.20;99.90
65692;DHT22;52411;52.716;6.696;2023-03-23T04:02:50;12.20;99.90
65692;DHT22;52411;52.716;6.696;2023-03-23T04:05:20;12.20;99.90
65692;DHT22;52411;52.716;6.696;2023-03-23T04:07:46;12.30;99.90
65692;DHT22;52411;52.716;6.696;2023-03-23T04:10:17;12.20;99.90
65692;DHT22;52411;52.716;6.696;2023-03-23T04:12:45;12.20;99.90
65692;DHT22;52411;52.716;6.696;2023-03-23T04:15:10;12.20;99.90
65692;DHT22;52411;52.716;6.696;2023-03-23T04:17:36;12.10;99.90
65692;DHT22;52411;52.716;6.696;2023-03-23T04:20:03;12.20;99.90
65692;DHT22;52411;52.716;6.696;2023-03-23T04:22:43;12.20;99.90
65692;DHT22;52411;52.716;6.696;2023-03-23T04:25:11;12.20;99.90
65692;DHT22;52411;52.716;6.696;2023-03-23T04:27:38;12.20;99.90
65692;DHT22;52411;52.716;6.696;2023-03-23T04:30:05;12.20;99.90
65692;DHT22;52411;52.716;6.696;2023-03-23T04:32:31;12.30;99.90
65692;DHT22;52411;52.716;6.696;2023-03-23T04:34:58;12.30;99.90
65692;DHT22;52411;52.716;6.696;2023-03-23T04:37:28;12.30;99.90
65692;DHT22;52411;52.716;6.696;2023-03-23T04:40:00;12.30;99.90
65692;DHT22;52411;52.716;6.696;2023-03-23T04:42:28;12.30;99.90
65692;DHT22;52411;52.716;6.696;2023-03-23T04:44:54;12.30;99.90
65692;DHT22;52411;52.716;6.696;2023-03-23T04:47:20;12.30;99.90
65692;DHT22;52411;52.716;6.696;2023-03-23T04:49:46;12.20;99.90
65692;DHT22;52411;52.716;6.696;2023-03-23T04:52:12;12.20;99.90
65692;DHT22;52411;52.716;6.696;2023-03-23T04:54:39;12.30;99.90
65692;DHT22;52411;52.716;6.696;2023-03-23T04:57:05;12.30;99.90
65692;DHT22;52411;52.716;6.696;2023-03-23T04:59:30;12.20;99.90
65692;DHT22;52411;52.716;6.696;2023-03-23T05:01:56;12.30;99.90
65692;DHT22;52411;52.716;6.696;2023-03-23T05:04:23;12.30;99.90
65692;DHT22;52411;52.716;6.696;2023-03-23T05:06:51;12.20;99.90
65692;DHT22;52411;52.716;6.696;2023-03-23T05:09:17;12.30;99.90
65692;DHT22;52411;52.716;6.696;2023-03-23T05:11:42;12.40;99.90
65692;DHT22;52411;52.716;6.696;2023-03-23T05:14:08;12.40;99.90
65692;DHT22;52411;52.716;6.696;2023-03-23T05:16:34;12.40;99.90
65692;DHT22;52411;52.716;6.696;2023-03-23T05:19:02;12.40;99.90
65692;DHT22;52411;52.716;6.696;2023-03-23T05:21:27;12.40;99.90
65692;DHT22;52411;52.716;6.696;2023-03-23T05:23:53;12.20;99.90
65692;DHT22;52411;52.716;6.696;2023-03-23T05:26:22;12.10;99.90
65692;DHT22;52411;52.716;6.696;2023-03-23T05:28:49;12.00;99.90
65692;DHT22;52411;52.716;6.696;2023-03-23T05:31:18;11.80;99.90
65692;DHT22;52411;52.716;6.696;2023-03-23T05:33:44;11.80;99.90
65692;DHT22;52411;52.716;6.696;2023-03-23T05:36:10;11.80;99.90
65692;DHT22;52411;52.716;6.696;2023-03-23T05:38:41;11.70;99.90
65692;DHT22;52411;52.716;6.696;2023-03-23T05:41:15;11.70;99.90
65692;DHT22;52411;52.716;6.696;2023-03-23T05:43:41;11.60;99.90
65692;DHT22;52411;52.716;6.696;2023-03-23T05:46:07;11.60;99.90
65692;DHT22;52411;52.716;6.696;2023-03-23T05:48:34;11.50;99.90
65692;DHT22;52411;52.716;6.696;2023-03-23T05:50:59;11.50;99.90
65692;DHT22;52411;52.716;6.696;2023-03-23T05:53:26;11.40;99.90
65692;DHT22;52411;52.716;6.696;2023-03-23T05:55:52;11.30;99.90
65692;DHT22;52411;52.716;6.696;2023-03-23T05:58:18;11.30;99.90
65692;DHT22;52411;52.716;6.696;2023-03-23T06:00:44;11.30;99.90
65692;DHT22;52411;52.716;6.696;2023-03-23T06:03:10;11.30;99.90
65692;DHT22;52411;52.716;6.696;2023-03-23T06:05:52;11.20;99.90
65692;DHT22;52411;52.716;6.696;2023-03-23T06:08:20;11.20;99.90
65692;DHT22;52411;52.716;6.696;2023-03-23T06:10:49;11.20;99.90
65692;DHT22;52411;52.716;6.696;2023-03-23T06:13:15;11.20;99.90
65692;DHT22;52411;52.716;6.696;2023-03-23T06:15:40;11.20;99.90
65692;DHT22;52411;52.716;6.696;2023-03-23T06:18:06;11.20;99.90
65692;DHT22;52411;52.716;6.696;2023-03-23T06:20:32;11.20;99.90
65692;DHT22;52411;52.716;6.696;2023-03-23T06:22:58;11.20;99.90
65692;DHT22;52411;52.716;6.696;2023-03-23T06:25:24;11.20;99.90
65692;DHT22;52411;52.716;6.696;2023-03-23T06:27:50;11.30;99.90
65692;DHT22;52411;52.716;6.696;2023-03-23T06:30:17;11.30;99.90
65692;DHT22;52411;52.716;6.696;2023-03-23T06:32:43;11.40;99.90
65692;DHT22;52411;52.716;6.696;2023-03-23T06:35:12;11.50;99.90
65692;DHT22;52411;52.716;6.696;2023-03-23T06:37:40;11.50;99.90
65692;DHT22;52411;52.716;6.696;2023-03-23T06:40:06;11.60;99.90
65692;DHT22;52411;52.716;6.696;2023-03-23T06:42:33;11.60;99.90
65692;DHT22;52411;52.716;6.696;2023-03-23T06:44:59;11.60;99.90
65692;DHT22;52411;52.716;6.696;2023-03-23T06:47:26;11.70;99.90
65692;DHT22;52411;52.716;6.696;2023-03-23T06:49:55;11.70;99.90
65692;DHT22;52411;52.716;6.696;2023-03-23T06:52:21;11.70;99.90
65692;DHT22;52411;52.716;6.696;2023-03-23T06:54:51;11.70;99.90
65692;DHT22;52411;52.716;6.696;2023-03-23T06:57:18;11.80;99.90
65692;DHT22;52411;52.716;6.696;2023-03-23T06:59:44;11.80;99.90
65692;DHT22;52411;52.716;6.696;2023-03-23T07:02:11;11.80;99.90
65692;DHT22;52411;52.716;6.696;2023-03-23T07:04:40;11.80;99.90
65692;DHT22;52411;52.716;6.696;2023-03-23T07:07:09;11.80;99.90
65692;DHT22;52411;52.716;6.696;2023-03-23T07:09:36;11.80;99.90
65692;DHT22;52411;52.716;6.696;2023-03-23T07:12:02;11.80;99.90
65692;DHT22;52411;52.716;6.696;2023-03-23T07:14:28;11.80;99.90
65692;DHT22;52411;52.716;6.696;2023-03-23T07:16:54;11.80;99.90
65692;DHT22;52411;52.716;6.696;2023-03-23T07:19:19;11.80;99.90
65692;DHT22;52411;52.716;6.696;2023-03-23T07:21:45;11.80;99.90
65692;DHT22;52411;52.716;6.696;2023-03-23T07:24:12;11.80;99.90
65692;DHT22;52411;52.716;6.696;2023-03-23T07:26:42;11.70;99.90
65692;DHT22;52411;52.716;6.696;2023-03-23T07:29:08;11.80;99.90
65692;DHT22;52411;52.716;6.696;2023-03-23T07:31:35;11.80;99.90
65692;DHT22;52411;52.716;6.696;2023-03-23T07:34:00;11.80;99.90
65692;DHT22;52411;52.716;6.696;2023-03-23T07:36:27;11.80;99.90
65692;DHT22;52411;52.716;6.696;2023-03-23T07:38:52;11.90;99.90
65692;DHT22;52411;52.716;6.696;2023-03-23T07:41:18;12.00;99.90
65692;DHT22;52411;52.716;6.696;2023-03-23T07:43:45;12.00;99.90
65692;DHT22;52411;52.716;6.696;2023-03-23T07:46:11;12.10;99.90
65692;DHT22;52411;52.716;6.696;2023-03-23T07:48:36;12.10;99.90
65692;DHT22;52411;52.716;6.696;2023-03-23T07:51:03;12.20;99.90
65692;DHT22;52411;52.716;6.696;2023-03-23T07:53:28;12.20;99.90
65692;DHT22;52411;52.716;6.696;2023-03-23T07:55:54;12.20;99.90
65692;DHT22;52411;52.716;6.696;2023-03-23T07:58:20;12.30;99.90
65692;DHT22;52411;52.716;6.696;2023-03-23T08:00:46;12.30;99.90
65692;DHT22;52411;52.716;6.696;2023-03-23T08:03:14;12.40;99.90
65692;DHT22;52411;52.716;6.696;2023-03-23T08:05:41;12.40;99.90
65692;DHT22;52411;52.716;6.696;2023-03-23T08:08:08;12.40;99.90
65692;DHT22;52411;52.716;6.696;2023-03-23T08:10:33;12.40;99.90
65692;DHT22;52411;52.716;6.696;2023-03-23T08:13:00;12.50;99.90
65692;DHT22;52411;52.716;6.696;2023-03-23T08:15:25;12.50;99.90
65692;DHT22;52411;52.716;6.696;2023-03-23T08:17:52;12.40;99.90
65692;DHT22;52411;52.716;6.696;2023-03-23T08:20:18;12.40;99.90
65692;DHT22;52411;52.716;6.696;2023-03-23T08:22:48;12.40;99.90
65692;DHT22;52411;52.716;6.696;2023-03-23T08:25:14;12.40;99.90
65692;DHT22;52411;52.716;6.696;2023-03-23T08:27:42;12.40;99.90
65692;DHT22;52411;52.716;6.696;2023-03-23T08:30:11;12.40;99.90
65692;DHT22;52411;52.716;6.696;2023-03-23T08:32:38;12.40;99.90
65692;DHT22;52411;52.716;6.696;2023-03-23T08:35:05;12.40;99.90
65692;DHT22;52411;52.716;6.696;2023-03-23T08:37:31;12.40;99.90
65692;DHT22;52411;52.716;6.696;2023-03-23T08:39:56;12.30;99.90
65692;DHT22;52411;52.716;6.696;2023-03-23T08:42:23;12.40;99.90
65692;DHT22;52411;52.716;6.696;2023-03-23T08:44:50;12.40;99.90
65692;DHT22;52411;52.716;6.696;2023-03-23T08:47:15;12.30;99.90
65692;DHT22;52411;52.716;6.696;2023-03-23T08:49:41;12.40;99.90
65692;DHT22;52411;52.716;6.696;2023-03-23T08:52:07;12.40;99.90
65692;DHT22;52411;52.716;6.696;2023-03-23T08:54:34;12.50;99.90
65692;DHT22;52411;52.716;6.696;2023-03-23T08:57:00;12.60;99.90
65692;DHT22;52411;52.716;6.696;2023-03-23T08:59:27;12.70;99.90
65692;DHT22;52411;52.716;6.696;2023-03-23T09:01:53;12.70;99.90
65692;DHT22;52411;52.716;6.696;2023-03-23T09:04:18;12.70;99.90
65692;DHT22;52411;52.716;6.696;2023-03-23T09:06:44;12.80;99.90
65692;DHT22;52411;52.716;6.696;2023-03-23T09:09:11;12.80;99.90
65692;DHT22;52411;52.716;6.696;2023-03-23T09:11:38;12.80;99.90
65692;DHT22;52411;52.716;6.696;2023-03-23T09:14:05;12.80;99.90
65692;DHT22;52411;52.716;6.696;2023-03-23T09:16:31;12.80;99.90
65692;DHT22;52411;52.716;6.696;2023-03-23T09:18:58;12.80;99.90
65692;DHT22;52411;52.716;6.696;2023-03-23T09:21:25;12.80;99.90
65692;DHT22;52411;52.716;6.696;2023-03-23T09:23:52;12.70;99.90
65692;DHT22;52411;52.716;6.696;2023-03-23T09:26:18;12.60;99.90
65692;DHT22;52411;52.716;6.696;2023-03-23T09:28:44;12.60;99.90
65692;DHT22;52411;52.716;6.696;2023-03-23T09:31:11;12.70;99.90
65692;DHT22;52411;52.716;6.696;2023-03-23T09:33:37;12.80;99.90
65692;DHT22;52411;52.716;6.696;2023-03-23T09:36:04;12.90;99.90
65692;DHT22;52411;52.716;6.696;2023-03-23T09:38:33;12.90;99.90
65692;DHT22;52411;52.716;6.696;2023-03-23T09:41:22;12.90;99.90
65692;DHT22;52411;52.716;6.696;2023-03-23T09:46:45;12.90;99.90
65692;DHT22;52411;52.716;6.696;2023-03-23T09:51:55;13.00;99.90
65692;DHT22;52411;52.716;6.696;2023-03-23T09:54:34;13.00;99.90
65692;DHT22;52411;52.716;6.696;2023-03-23T09:57:02;13.00;99.90
65692;DHT22;52411;52.716;6.696;2023-03-23T10:02:34;13.00;99.90
65692;DHT22;52411;52.716;6.696;2023-03-23T10:07:50;13.10;99.90
65692;DHT22;52411;52.716;6.696;2023-03-23T10:10:16;13.20;99.90
65692;DHT22;52411;52.716;6.696;2023-03-23T10:12:50;13.30;99.90
65692;DHT22;52411;52.716;6.696;2023-03-23T10:15:32;13.50;99.90
65692;DHT22;52411;52.716;6.696;2023-03-23T10:18:20;13.70;99.90
65692;DHT22;52411;52.716;6.696;2023-03-23T10:20:53;13.50;99.90
65692;DHT22;52411;52.716;6.696;2023-03-23T10:25:52;13.80;99.90
65692;DHT22;52411;52.716;6.696;2023-03-23T10:28:22;13.70;99.90
65692;DHT22;52411;52.716;6.696;2023-03-23T10:30:53;14.10;99.90
65692;DHT22;52411;52.716;6.696;2023-03-23T10:33:29;14.20;99.90
65692;DHT22;52411;52.716;6.696;2023-03-23T10:36:13;14.30;99.90
65692;DHT22;52411;52.716;6.696;2023-03-23T10:38:43;14.20;99.90
65692;DHT22;52411;52.716;6.696;2023-03-23T10:41:14;14.10;99.90
65692;DHT22;52411;52.716;6.696;2023-03-23T10:43:42;14.00;99.90
65692;DHT22;52411;52.716;6.696;2023-03-23T10:46:35;13.90;99.90
65692;DHT22;52411;52.716;6.696;2023-03-23T10:49:09;14.20;99.90
65692;DHT22;52411;52.716;6.696;2023-03-23T10:51:40;14.30;99.90
65692;DHT22;52411;52.716;6.696;2023-03-23T10:54:07;14.40;99.90
65692;DHT22;52411;52.716;6.696;2023-03-23T10:56:42;14.50;99.90
65692;DHT22;52411;52.716;6.696;2023-03-23T10:59:20;14.30;99.90
65692;DHT22;52411;52.716;6.696;2023-03-23T11:01:54;14.40;99.90
65692;DHT22;52411;52.716;6.696;2023-03-23T11:04:20;14.40;99.90
65692;DHT22;52411;52.716;6.696;2023-03-23T11:06:52;14.50;99.90
65692;DHT22;52411;52.716;6.696;2023-03-23T11:09:32;14.60;99.90
65692;DHT22;52411;52.716;6.696;2023-03-23T11:11:58;14.40;99.90
65692;DHT22;52411;52.716;6.696;2023-03-23T11:14:26;14.30;99.90
65692;DHT22;52411;52.716;6.696;2023-03-23T11:16:55;14.40;99.90
65692;DHT22;52411;52.716;6.696;2023-03-23T11:19:27;14.50;99.90
65692;DHT22;52411;52.716;6.696;2023-03-23T11:21:56;14.80;99.90
65692;DHT22;52411;52.716;6.696;2023-03-23T11:24:27;15.00;99.90
65692;DHT22;52411;52.716;6.696;2023-03-23T11:26:56;15.20;99.90
65692;DHT22;52411;52.716;6.696;2023-03-23T11:29:25;15.10;99.90
65692;DHT22;52411;52.716;6.696;2023-03-23T11:34:41;15.30;99.90
65692;DHT22;52411;52.716;6.696;2023-03-23T11:37:42;15.50;99.90
65692;DHT22;52411;52.716;6.696;2023-03-23T11:42:44;14.40;99.90
65692;DHT22;52411;52.716;6.696;2023-03-23T11:51:12;13.80;99.90
65692;DHT22;52411;52.716;6.696;2023-03-23T11:56:38;13.60;99.90
65692;DHT22;52411;52.716;6.696;2023-03-23T11:59:10;14.10;99.90
65692;DHT22;52411;52.716;6.696;2023-03-23T12:13:23;15.20;99.90
65692;DHT22;52411;52.716;6.696;2023-03-23T12:16:26;15.20;99.90
65692;DHT22;52411;52.716;6.696;2023-03-23T12:19:17;15.30;99.90
65692;DHT22;52411;52.716;6.696;2023-03-23T12:24:41;15.40;99.90
65692;DHT22;52411;52.716;6.696;2023-03-23T12:30:29;15.70;99.90
65692;DHT22;52411;52.716;6.696;2023-03-23T12:38:42;15.50;99.90
65692;DHT22;52411;52.716;6.696;2023-03-23T12:41:47;15.30;99.90
65692;DHT22;52411;52.716;6.696;2023-03-23T12:44:17;15.00;99.90
65692;DHT22;52411;52.716;6.696;2023-03-23T12:49:53;14.90;99.90
65692;DHT22;52411;52.716;6.696;2023-03-23T12:52:30;15.20;99.90
65692;DHT22;52411;52.716;6.696;2023-03-23T12:55:05;15.30;99.90
65692;DHT22;52411;52.716;6.696;2023-03-23T12:58:01;15.20;99.90
65692;DHT22;52411;52.716;6.696;2023-03-23T13:00:29;15.40;99.90
65692;DHT22;52411;52.716;6.696;2023-03-23T13:03:07;15.50;99.90
65692;DHT22;52411;52.716;6.696;2023-03-23T13:05:46;15.60;99.90
65692;DHT22;52411;52.716;6.696;2023-03-23T13:08:22;15.50;99.90
65692;DHT22;52411;52.716;6.696;2023-03-23T13:10:54;15.70;99.90
65692;DHT22;52411;52.716;6.696;2023-03-23T13:13:23;15.50;99.90
65692;DHT22;52411;52.716;6.696;2023-03-23T13:16:09;15.20;99.90
65692;DHT22;52411;52.716;6.696;2023-03-23T13:19:00;15.20;99.90
65692;DHT22;52411;52.716;6.696;2023-03-23T13:21:43;15.50;99.90
65692;DHT22;52411;52.716;6.696;2023-03-23T13:24:15;15.40;99.90
65692;DHT22;52411;52.716;6.696;2023-03-23T13:26:43;15.30;99.90
65692;DHT22;52411;52.716;6.696;2023-03-23T13:29:14;15.10;99.90
65692;DHT22;52411;52.716;6.696;2023-03-23T13:31:41;15.10;99.90
65692;DHT22;52411;52.716;6.696;2023-03-23T13:34:39;15.10;99.90
65692;DHT22;52411;52.716;6.696;2023-03-23T13:42:48;14.80;99.90
65692;DHT22;52411;52.716;6.696;2023-03-23T13:51:21;14.50;99.90
65692;DHT22;52411;52.716;6.696;2023-03-23T13:53:49;14.70;99.90
65692;DHT22;52411;52.716;6.696;2023-03-23T13:59:13;15.10;99.90
65692;DHT22;52411;52.716;6.696;2023-03-23T14:01:40;15.10;99.90
65692;DHT22;52411;52.716;6.696;2023-03-23T14:04:17;15.10;99.90
65692;DHT22;52411;52.716;6.696;2023-03-23T14:06:46;14.90;99.90
65692;DHT22;52411;52.716;6.696;2023-03-23T14:09:14;14.90;99.90
65692;DHT22;52411;52.716;6.696;2023-03-23T14:11:49;14.80;99.90
65692;DHT22;52411;52.716;6.696;2023-03-23T14:14:24;15.00;99.90
65692;DHT22;52411;52.716;6.696;2023-03-23T14:16:51;15.10;99.90
65692;DHT22;52411;52.716;6.696;2023-03-23T14:19:29;15.10;99.90
65692;DHT22;52411;52.716;6.696;2023-03-23T14:24:33;15.50;99.90
65692;DHT22;52411;52.716;6.696;2023-03-23T14:27:19;15.90;99.90
65692;DHT22;52411;52.716;6.696;2023-03-23T14:29:45;16.00;99.90
65692;DHT22;52411;52.716;6.696;2023-03-23T14:32:18;15.80;99.90
65692;DHT22;52411;52.716;6.696;2023-03-23T14:34:50;15.80;99.90
65692;DHT22;52411;52.716;6.696;2023-03-23T14:37:16;15.60;99.90
65692;DHT22;52411;52.716;6.696;2023-03-23T14:39:49;15.30;99.90
65692;DHT22;52411;52.716;6.696;2023-03-23T14:42:30;15.20;99.90
65692;DHT22;52411;52.716;6.696;2023-03-23T14:44:57;15.00;99.90
65692;DHT22;52411;52.716;6.696;2023-03-23T14:47:29;14.80;99.90
65692;DHT22;52411;52.716;6.696;2023-03-23T14:49:57;14.70;99.90
65692;DHT22;52411;52.716;6.696;2023-03-23T14:52:32;13.60;99.90
65692;DHT22;52411;52.716;6.696;2023-03-23T14:55:12;12.50;99.90
65692;DHT22;52411;52.716;6.696;2023-03-23T14:57:41;12.10;99.90
65692;DHT22;52411;52.716;6.696;2023-03-23T15:00:15;12.10;99.90
65692;DHT22;52411;52.716;6.696;2023-03-23T15:02:45;12.30;99.90
65692;DHT22;52411;52.716;6.696;2023-03-23T15:05:22;12.50;99.90
65692;DHT22;52411;52.716;6.696;2023-03-23T15:07:52;12.80;99.90
65692;DHT22;52411;52.716;6.696;2023-03-23T15:10:21;13.00;99.90
65692;DHT22;52411;52.716;6.696;2023-03-23T15:12:49;13.10;99.90
65692;DHT22;52411;52.716;6.696;2023-03-23T15:15:31;13.10;99.90
65692;DHT22;52411;52.716;6.696;2023-03-23T15:17:58;13.20;99.90
65692;DHT22;52411;52.716;6.696;2023-03-23T15:20:28;13.20;99.90
65692;DHT22;52411;52.716;6.696;2023-03-23T15:22:55;13.10;99.90
65692;DHT22;52411;52.716;6.696;2023-03-23T15:27:57;13.40;99.90
65692;DHT22;52411;52.716;6.696;2023-03-23T15:33:04;13.90;99.90
65692;DHT22;52411;52.716;6.696;2023-03-23T15:35:37;14.20;99.90
65692;DHT22;52411;52.716;6.696;2023-03-23T15:38:24;14.90;99.90
65692;DHT22;52411;52.716;6.696;2023-03-23T15:40:52;15.60;99.90
65692;DHT22;52411;52.716;6.696;2023-03-23T15:48:22;15.50;99.90
65692;DHT22;52411;52.716;6.696;2023-03-23T15:50:49;15.20;99.90
65692;DHT22;52411;52.716;6.696;2023-03-23T15:53:25;14.90;99.90
65692;DHT22;52411;52.716;6.696;2023-03-23T15:55:51;14.70;99.90
65692;DHT22;52411;52.716;6.696;2023-03-23T15:58:16;14.50;99.90
65692;DHT22;52411;52.716;6.696;2023-03-23T16:00:43;14.30;99.90
65692;DHT22;52411;52.716;6.696;2023-03-23T16:06:05;14.00;99.90
65692;DHT22;52411;52.716;6.696;2023-03-23T16:08:30;13.50;99.90
65692;DHT22;52411;52.716;6.696;2023-03-23T16:10:56;13.20;99.90
65692;DHT22;52411;52.716;6.696;2023-03-23T16:13:22;13.10;99.90
65692;DHT22;52411;52.716;6.696;2023-03-23T16:15:48;13.10;99.90
65692;DHT22;52411;52.716;6.696;2023-03-23T16:18:19;13.00;99.90
65692;DHT22;52411;52.716;6.696;2023-03-23T16:20:47;13.00;99.90
65692;DHT22;52411;52.716;6.696;2023-03-23T16:23:13;12.90;99.90
65692;DHT22;52411;52.716;6.696;2023-03-23T16:25:39;12.80;99.90
65692;DHT22;52411;52.716;6.696;2023-03-23T16:28:07;12.80;99.90
65692;DHT22;52411;52.716;6.696;2023-03-23T16:30:34;12.80;99.90
65692;DHT22;52411;52.716;6.696;2023-03-23T16:33:02;12.80;99.90
65692;DHT22;52411;52.716;6.696;2023-03-23T16:35:28;12.70;99.90
65692;DHT22;52411;52.716;6.696;2023-03-23T16:37:55;12.80;99.90
65692;DHT22;52411;52.716;6.696;2023-03-23T16:40:22;12.80;99.90
65692;DHT22;52411;52.716;6.696;2023-03-23T16:42:48;12.90;99.90
65692;DHT22;52411;52.716;6.696;2023-03-23T16:45:15;13.30;99.90
65692;DHT22;52411;52.716;6.696;2023-03-23T16:47:41;13.70;99.90
65692;DHT22;52411;52.716;6.696;2023-03-23T16:50:10;13.90;99.90
65692;DHT22;52411;52.716;6.696;2023-03-23T16:52:37;13.50;99.90
65692;DHT22;52411;52.716;6.696;2023-03-23T16:55:04;13.30;99.90
65692;DHT22;52411;52.716;6.696;2023-03-23T16:57:32;13.00;99.90
65692;DHT22;52411;52.716;6.696;2023-03-23T16:59:59;12.70;99.90
65692;DHT22;52411;52.716;6.696;2023-03-23T17:02:25;12.60;99.90
65692;DHT22;52411;52.716;6.696;2023-03-23T17:04:51;12.50;99.90
65692;DHT22;52411;52.716;6.696;2023-03-23T17:07:17;12.40;99.90
65692;DHT22;52411;52.716;6.696;2023-03-23T17:09:42;12.30;99.90
65692;DHT22;52411;52.716;6.696;2023-03-23T17:12:08;12.20;99.90
65692;DHT22;52411;52.716;6.696;2023-03-23T17:14:34;12.20;99.90
65692;DHT22;52411;52.716;6.696;2023-03-23T17:16:59;12.20;99.90
65692;DHT22;52411;52.716;6.696;2023-03-23T17:19:25;12.20;99.90
65692;DHT22;52411;52.716;6.696;2023-03-23T17:21:51;12.20;99.90
65692;DHT22;52411;52.716;6.696;2023-03-23T17:24:17;12.20;99.90
65692;DHT22;52411;52.716;6.696;2023-03-23T17:26:43;12.20;99.90